Time;durP1;ratioP1;P1;durP2;ratioP2;P2;SDS_P1;SDS_P2;PMS_P1;PMS_P2;Temp;Humidity;BMP_temperature;BMP_pressure;BME280_temperature;BME280_humidity;BME280_pressure;Samples;Min_cycle;Max_cycle;Signal;HPM_P1;HPM_P2
2024/01/13 00:02:16;;;;;;;;;49.00;34.00;;;;;;;;5039324;28;45407;-83
2024/01/13 00:04:41;;;;;;;;;43.33;33.00;;;;;;;;5032622;28;45280;-83
2024/01/13 00:07:06;;;;;;;;;54.00;43.00;;;;;;;;5026502;28;47977;-83
2024/01/13 00:09:31;;;;;;;;;51.67;40.67;;;;;;;;5029145;28;45393;-83
2024/01/13 00:11:56;;;;;;;;;52.33;43.33;;;;;;;;5024437;28;45569;-83
2024/01/13 00:14:22;;;;;;;;;49.33;31.33;;;;;;;;5032871;28;45596;-83
2024/01/13 00:16:47;;;;;;;;;47.33;40.67;;;;;;;;5047390;28;45212;-83
2024/01/13 00:19:12;;;;;;;;;49.33;37.33;;;;;;;;5052520;28;45260;-83
2024/01/13 00:21:37;;;;;;;;;43.00;35.00;;;;;;;;5045696;28;45252;-83
2024/01/13 00:24:03;;;;;;;;;47.33;40.33;;;;;;;;5036550;28;45569;-83
2024/01/13 00:26:28;;;;;;;;;43.75;36.75;;;;;;;;5030613;28;47076;-83
2024/01/13 00:28:53;;;;;;;;;56.33;42.33;;;;;;;;5053447;28;45299;-83
2024/01/13 00:31:18;;;;;;;;;50.33;37.33;;;;;;;;5049231;28;45686;-82
2024/01/13 00:33:44;;;;;;;;;58.00;40.67;;;;;;;;5035555;28;45430;-82
2024/01/13 00:36:09;;;;;;;;;43.50;34.75;;;;;;;;5050855;28;45700;-82
2024/01/13 00:38:35;;;;;;;;;45.25;41.25;;;;;;;;5049909;28;45297;-82
2024/01/13 00:41:00;;;;;;;;;40.50;39.00;;;;;;;;5049629;28;45562;-83
2024/01/13 00:43:25;;;;;;;;;51.50;42.75;;;;;;;;5030558;28;45928;-83
2024/01/13 00:45:51;;;;;;;;;54.67;44.33;;;;;;;;5042828;28;45386;-83
2024/01/13 00:48:16;;;;;;;;;58.33;41.33;;;;;;;;5045138;28;45402;-82
2024/01/13 00:50:41;;;;;;;;;57.00;46.33;;;;;;;;5047224;28;45314;-82
2024/01/13 00:53:06;;;;;;;;;49.33;43.00;;;;;;;;5039964;28;45395;-82
2024/01/13 00:55:31;;;;;;;;;52.00;44.67;;;;;;;;5039185;28;46399;-84
2024/01/13 00:57:56;;;;;;;;;45.33;40.33;;;;;;;;5051771;28;45675;-84
2024/01/13 01:00:22;;;;;;;;;62.67;46.67;;;;;;;;5031034;28;45347;-84
2024/01/13 01:02:47;;;;;;;;;41.33;39.33;;;;;;;;5044955;28;45502;-84
2024/01/13 01:05:12;;;;;;;;;63.00;44.33;;;;;;;;5048661;28;45457;-84
2024/01/13 01:07:37;;;;;;;;;54.33;39.67;;;;;;;;5051200;28;45474;-84
2024/01/13 01:10:03;;;;;;;;;39.00;35.00;;;;;;;;5049168;28;45284;-84
2024/01/13 01:12:28;;;;;;;;;54.25;44.00;;;;;;;;5033174;28;45358;-84
2024/01/13 01:14:53;;;;;;;;;49.33;40.33;;;;;;;;5031039;28;47256;-84
2024/01/13 01:17:18;;;;;;;;;54.33;44.00;;;;;;;;5050861;28;45433;-84
2024/01/13 01:19:43;;;;;;;;;46.33;37.67;;;;;;;;5048810;28;45453;-85
2024/01/13 01:22:09;;;;;;;;;56.00;43.00;;;;;;;;5031674;28;45563;-85
2024/01/13 01:24:34;;;;;;;;;43.00;37.67;;;;;;;;5048319;28;46242;-85
2024/01/13 01:26:59;;;;;;;;;51.67;41.33;;;;;;;;5050504;28;45399;-85
2024/01/13 01:29:24;;;;;;;;;45.00;40.00;;;;;;;;5049489;28;45465;-85
2024/01/13 01:31:50;;;;;;;;;50.67;40.33;;;;;;;;5027569;28;45406;-85
2024/01/13 01:34:15;;;;;;;;;46.75;34.25;;;;;;;;5048405;28;46273;-83
2024/01/13 01:36:40;;;;;;;;;48.67;37.00;;;;;;;;5035282;28;45585;-83
2024/01/13 01:39:05;;;;;;;;;49.67;34.33;;;;;;;;5026138;28;45280;-83
2024/01/13 01:41:31;;;;;;;;;41.33;38.67;;;;;;;;5030833;28;45500;-82
2024/01/13 01:43:57;;;;;;;;;43.25;36.25;;;;;;;;5037572;28;45734;-83
2024/01/13 01:46:22;;;;;;;;;41.67;36.00;;;;;;;;5039871;28;45442;-83
2024/01/13 01:48:50;;;;;;;;;54.75;36.25;;;;;;;;5024529;28;45311;-83
2024/01/13 01:51:16;;;;;;;;;44.25;32.00;;;;;;;;5029822;28;45275;-82
2024/01/13 01:53:43;;;;;;;;;52.00;39.75;;;;;;;;5042150;28;45364;-82
2024/01/13 01:56:10;;;;;;;;;55.50;41.75;;;;;;;;5048557;28;45724;-82
2024/01/13 01:58:36;;;;;;;;;47.25;41.25;;;;;;;;5031340;28;45270;-83
2024/01/13 02:01:02;;;;;;;;;41.00;31.50;;;;;;;;5024133;28;45497;-82
2024/01/13 02:03:27;;;;;;;;;46.75;37.25;;;;;;;;5048332;28;45641;-82
2024/01/13 02:05:53;;;;;;;;;40.25;32.00;;;;;;;;5031346;28;45490;-82
2024/01/13 02:08:19;;;;;;;;;37.75;27.25;;;;;;;;5048527;28;45306;-84
2024/01/13 02:10:44;;;;;;;;;46.50;37.25;;;;;;;;5046084;28;45460;-83
2024/01/13 02:13:09;;;;;;;;;40.67;37.00;;;;;;;;5044288;28;45373;-82
2024/01/13 02:15:34;;;;;;;;;44.00;33.00;;;;;;;;5030654;28;45277;-83
2024/01/13 02:17:59;;;;;;;;;48.33;40.67;;;;;;;;5047835;28;45537;-82
2024/01/13 02:20:25;;;;;;;;;43.00;34.67;;;;;;;;5029992;28;46425;-82
2024/01/13 02:22:50;;;;;;;;;45.33;34.67;;;;;;;;5048416;28;45335;-82
2024/01/13 02:25:15;;;;;;;;;42.67;34.67;;;;;;;;5030906;28;45319;-82
2024/01/13 02:27:40;;;;;;;;;44.25;35.25;;;;;;;;5027738;28;45493;-82
2024/01/13 02:30:06;;;;;;;;;40.67;33.67;;;;;;;;5046744;28;45417;-83
2024/01/13 02:32:31;;;;;;;;;38.25;36.75;;;;;;;;5038828;28;47617;-82
2024/01/13 02:34:56;;;;;;;;;39.67;36.00;;;;;;;;5048891;28;45212;-82
2024/01/13 02:37:21;;;;;;;;;29.33;29.00;;;;;;;;5032644;28;45274;-82
2024/01/13 02:39:47;;;;;;;;;34.00;29.67;;;;;;;;5037332;28;45314;-83
2024/01/13 02:42:12;;;;;;;;;47.50;31.25;;;;;;;;5028751;28;47340;-82
2024/01/13 02:44:37;;;;;;;;;33.33;26.00;;;;;;;;5028493;28;45353;-83
2024/01/13 02:47:03;;;;;;;;;28.67;21.00;;;;;;;;5039270;28;45505;-82
2024/01/13 02:49:28;;;;;;;;;37.00;26.00;;;;;;;;5041722;28;45188;-82
2024/01/13 02:51:53;;;;;;;;;47.33;36.00;;;;;;;;5023383;28;46850;-83
2024/01/13 02:54:18;;;;;;;;;36.33;30.67;;;;;;;;5041667;28;45263;-82
2024/01/13 02:56:43;;;;;;;;;44.33;35.67;;;;;;;;5050986;28;45306;-82
2024/01/13 02:59:08;;;;;;;;;29.00;19.33;;;;;;;;5046210;28;45249;-82
2024/01/13 03:01:34;;;;;;;;;31.75;27.50;;;;;;;;5046263;28;45401;-82
2024/01/13 03:03:59;;;;;;;;;42.50;32.50;;;;;;;;5045898;28;45211;-82
2024/01/13 03:06:25;;;;;;;;;25.25;22.75;;;;;;;;5049739;28;45361;-82
2024/01/13 03:08:50;;;;;;;;;34.50;29.50;;;;;;;;5045415;28;45308;-82
2024/01/13 03:11:15;;;;;;;;;43.00;32.50;;;;;;;;5030349;28;48191;-83
2024/01/13 03:13:41;;;;;;;;;32.50;27.50;;;;;;;;5045237;28;45306;-83
2024/01/13 03:16:08;;;;;;;;;36.33;26.00;;;;;;;;5048806;28;45268;-82
2024/01/13 03:18:34;;;;;;;;;47.50;32.50;;;;;;;;5041178;28;45338;-83
2024/01/13 03:20:59;;;;;;;;;40.75;31.00;;;;;;;;5046230;28;46490;-83
2024/01/13 03:23:24;;;;;;;;;34.33;28.67;;;;;;;;5039286;28;45412;-83
2024/01/13 03:25:49;;;;;;;;;34.00;30.00;;;;;;;;5030705;28;45563;-82
2024/01/13 03:28:14;;;;;;;;;34.00;28.67;;;;;;;;5044154;28;45634;-82
2024/01/13 03:30:40;;;;;;;;;35.67;23.67;;;;;;;;5027276;28;47026;-82
2024/01/13 03:33:05;;;;;;;;;37.67;31.67;;;;;;;;5038845;28;45290;-83
2024/01/13 03:35:31;;;;;;;;;37.00;30.00;;;;;;;;5035387;28;46032;-83
2024/01/13 03:37:56;;;;;;;;;41.50;32.25;;;;;;;;5040292;28;45342;-82
2024/01/13 03:40:21;;;;;;;;;34.67;29.33;;;;;;;;5038814;28;46294;-83
2024/01/13 03:42:46;;;;;;;;;33.00;25.33;;;;;;;;5029034;28;45303;-82
2024/01/13 03:45:14;;;;;;;;;37.00;25.67;;;;;;;;5045318;28;45587;-82
2024/01/13 03:47:40;;;;;;;;;28.75;27.25;;;;;;;;5038875;28;45519;-83
2024/01/13 03:50:06;;;;;;;;;35.00;28.25;;;;;;;;5024789;28;48133;-83
2024/01/13 03:52:32;;;;;;;;;34.25;26.75;;;;;;;;5036320;28;45460;-83
2024/01/13 03:54:57;;;;;;;;;26.00;24.00;;;;;;;;5032978;28;45458;-82
2024/01/13 03:57:22;;;;;;;;;34.00;29.33;;;;;;;;5048049;28;45178;-82
2024/01/13 03:59:47;;;;;;;;;31.00;23.33;;;;;;;;5034705;28;48287;-82
2024/01/13 04:02:12;;;;;;;;;38.33;29.67;;;;;;;;5029305;28;45389;-82
2024/01/13 04:04:38;;;;;;;;;21.00;17.33;;;;;;;;5054193;28;45330;-82
2024/01/13 04:07:03;;;;;;;;;30.75;19.50;;;;;;;;5048951;28;45329;-82
2024/01/13 04:09:28;;;;;;;;;26.75;25.25;;;;;;;;5055256;28;45288;-82
2024/01/13 04:11:53;;;;;;;;;35.33;26.00;;;;;;;;5047090;28;45512;-82
2024/01/13 04:14:18;;;;;;;;;32.67;26.00;;;;;;;;5054486;28;45286;-82
2024/01/13 04:16:44;;;;;;;;;40.67;28.67;;;;;;;;5047613;28;45259;-82
2024/01/13 04:19:10;;;;;;;;;30.33;28.67;;;;;;;;5056376;28;46215;-82
2024/01/13 04:21:35;;;;;;;;;36.00;24.50;;;;;;;;5022873;28;45753;-82
2024/01/13 04:24:00;;;;;;;;;32.00;29.00;;;;;;;;5030565;28;45372;-82
2024/01/13 04:26:26;;;;;;;;;23.33;18.33;;;;;;;;5048489;28;45310;-82
2024/01/13 04:28:51;;;;;;;;;34.00;26.67;;;;;;;;5052481;28;46403;-82
2024/01/13 04:31:16;;;;;;;;;25.33;22.67;;;;;;;;5024682;28;45687;-82
2024/01/13 04:33:41;;;;;;;;;29.67;26.33;;;;;;;;5029912;28;45367;-82
2024/01/13 04:36:06;;;;;;;;;25.67;15.67;;;;;;;;5050836;28;45239;-82
2024/01/13 04:38:31;;;;;;;;;32.00;25.33;;;;;;;;5031424;28;47254;-82
2024/01/13 04:40:57;;;;;;;;;32.67;25.67;;;;;;;;5043386;28;45344;-83
2024/01/13 04:43:22;;;;;;;;;30.67;24.00;;;;;;;;5054997;28;45317;-83
2024/01/13 04:45:47;;;;;;;;;28.75;27.25;;;;;;;;5042577;28;45456;-82
2024/01/13 04:48:14;;;;;;;;;29.00;26.67;;;;;;;;5042604;28;45353;-82
2024/01/13 04:50:39;;;;;;;;;30.25;25.75;;;;;;;;5025694;28;45730;-82
2024/01/13 04:53:04;;;;;;;;;28.67;27.00;;;;;;;;5041593;28;45439;-82
2024/01/13 04:55:29;;;;;;;;;29.67;22.00;;;;;;;;5047505;28;45562;-82
2024/01/13 04:57:54;;;;;;;;;36.00;25.00;;;;;;;;5054781;28;46379;-82
2024/01/13 05:00:20;;;;;;;;;33.00;26.67;;;;;;;;5047342;28;45370;-82
2024/01/13 05:02:45;;;;;;;;;26.00;23.00;;;;;;;;5047510;28;45255;-82
2024/01/13 05:05:10;;;;;;;;;25.33;21.67;;;;;;;;5047962;28;45503;-82
2024/01/13 05:07:36;;;;;;;;;23.67;21.00;;;;;;;;5046040;28;45563;-82
2024/01/13 05:10:02;;;;;;;;;32.75;23.00;;;;;;;;5029363;28;45309;-82
2024/01/13 05:12:27;;;;;;;;;35.75;25.00;;;;;;;;5046528;28;45236;-82
2024/01/13 05:14:52;;;;;;;;;28.67;21.33;;;;;;;;5046468;28;45358;-82
2024/01/13 05:17:17;;;;;;;;;29.00;24.00;;;;;;;;5032921;28;47601;-82
2024/01/13 05:19:42;;;;;;;;;21.33;18.67;;;;;;;;5047598;28;45261;-82
2024/01/13 05:22:07;;;;;;;;;28.33;24.33;;;;;;;;5044704;28;45412;-82
2024/01/13 05:24:33;;;;;;;;;31.33;25.00;;;;;;;;5036552;28;45497;-82
2024/01/13 05:26:58;;;;;;;;;34.67;25.67;;;;;;;;5050565;28;45961;-82
2024/01/13 05:29:23;;;;;;;;;21.33;17.33;;;;;;;;5031658;28;45328;-82
2024/01/13 05:31:48;;;;;;;;;29.33;24.00;;;;;;;;5030619;28;45427;-82
2024/01/13 05:34:13;;;;;;;;;31.67;23.33;;;;;;;;5039200;28;45426;-82
2024/01/13 05:36:39;;;;;;;;;28.00;22.67;;;;;;;;5034721;28;48556;-82
2024/01/13 05:39:04;;;;;;;;;33.33;25.33;;;;;;;;5044852;28;45362;-82
2024/01/13 05:41:29;;;;;;;;;20.33;18.67;;;;;;;;5052370;28;45539;-82
2024/01/13 05:43:54;;;;;;;;;28.67;26.33;;;;;;;;5027418;28;45561;-82
2024/01/13 05:46:19;;;;;;;;;35.00;24.00;;;;;;;;5040088;28;45434;-82
2024/01/13 05:48:45;;;;;;;;;23.00;15.33;;;;;;;;5024279;28;45565;-82
2024/01/13 05:51:10;;;;;;;;;30.33;25.00;;;;;;;;5036337;28;45417;-82
2024/01/13 05:53:37;;;;;;;;;30.75;27.25;;;;;;;;5026829;28;45676;-82
2024/01/13 05:56:02;;;;;;;;;35.00;30.25;;;;;;;;5038650;28;45401;-82
2024/01/13 05:58:27;;;;;;;;;28.75;23.50;;;;;;;;5032345;28;45272;-82
2024/01/13 06:00:52;;;;;;;;;27.67;22.33;;;;;;;;5030745;28;45288;-82
2024/01/13 06:03:19;;;;;;;;;35.00;25.67;;;;;;;;5048781;28;45357;-82
2024/01/13 06:05:44;;;;;;;;;33.25;23.25;;;;;;;;5042292;28;46448;-82
2024/01/13 06:08:09;;;;;;;;;35.00;29.33;;;;;;;;5050851;28;45264;-82
2024/01/13 06:10:34;;;;;;;;;35.33;26.00;;;;;;;;5031659;28;45511;-82
2024/01/13 06:13:00;;;;;;;;;37.67;25.67;;;;;;;;5053756;28;45321;-82
2024/01/13 06:15:26;;;;;;;;;30.25;28.00;;;;;;;;5017255;28;47444;-82
2024/01/13 06:17:51;;;;;;;;;34.75;24.25;;;;;;;;5032358;28;45472;-83
2024/01/13 06:20:16;;;;;;;;;36.00;29.67;;;;;;;;5042162;28;45453;-82
2024/01/13 06:22:42;;;;;;;;;38.00;25.00;;;;;;;;5048118;28;45396;-82
2024/01/13 06:25:07;;;;;;;;;34.00;26.33;;;;;;;;5043689;28;46157;-82
2024/01/13 06:27:32;;;;;;;;;33.33;27.00;;;;;;;;5048777;28;45350;-82
2024/01/13 06:29:57;;;;;;;;;37.67;27.67;;;;;;;;5050157;28;45382;-82
2024/01/13 06:32:23;;;;;;;;;26.50;21.50;;;;;;;;5035157;28;45315;-82
2024/01/13 06:34:48;;;;;;;;;34.25;29.50;;;;;;;;5041823;28;45400;-83
2024/01/13 06:37:13;;;;;;;;;33.33;26.67;;;;;;;;5053499;28;45330;-84
2024/01/13 06:39:38;;;;;;;;;33.67;29.00;;;;;;;;5045516;28;45251;-84
2024/01/13 06:42:06;;;;;;;;;37.67;32.67;;;;;;;;5047222;28;45425;-84
2024/01/13 06:44:32;;;;;;;;;29.25;26.00;;;;;;;;5041521;28;46125;-83
2024/01/13 06:46:57;;;;;;;;;29.25;22.25;;;;;;;;5038845;28;45457;-84
2024/01/13 06:49:22;;;;;;;;;27.67;26.67;;;;;;;;5024234;28;45346;-83
2024/01/13 06:51:47;;;;;;;;;45.00;33.67;;;;;;;;5029535;28;45289;-84
2024/01/13 06:54:12;;;;;;;;;29.00;26.00;;;;;;;;5037261;28;46223;-84
2024/01/13 06:56:37;;;;;;;;;36.00;32.67;;;;;;;;5044574;28;45528;-84
2024/01/13 06:59:03;;;;;;;;;31.33;26.00;;;;;;;;5027491;28;45340;-84
2024/01/13 07:01:28;;;;;;;;;34.67;26.33;;;;;;;;5049747;28;45429;-84
2024/01/13 07:03:53;;;;;;;;;38.33;29.67;;;;;;;;5044307;28;45353;-84
2024/01/13 07:06:19;;;;;;;;;25.00;23.33;;;;;;;;5026960;28;45374;-84
2024/01/13 07:08:44;;;;;;;;;29.75;25.75;;;;;;;;5027259;28;45307;-84
2024/01/13 07:11:13;;;;;;;;;25.67;18.67;;;;;;;;5049941;28;45385;-84
2024/01/13 07:13:40;;;;;;;;;23.75;23.75;;;;;;;;5044660;28;45624;-84
2024/01/13 07:16:05;;;;;;;;;23.50;20.75;;;;;;;;5049022;28;45259;-84
2024/01/13 07:18:30;;;;;;;;;27.33;22.00;;;;;;;;5046337;28;45461;-84
2024/01/13 07:20:56;;;;;;;;;19.33;18.00;;;;;;;;5045196;28;45624;-84
2024/01/13 07:23:21;;;;;;;;;30.50;24.00;;;;;;;;5044113;28;45857;-83
2024/01/13 07:25:47;;;;;;;;;30.33;23.33;;;;;;;;5029027;28;45674;-83
2024/01/13 07:28:12;;;;;;;;;29.25;23.50;;;;;;;;5045530;28;45324;-83
2024/01/13 07:30:37;;;;;;;;;24.00;24.00;;;;;;;;5036074;28;46105;-83
2024/01/13 07:33:02;;;;;;;;;30.00;19.00;;;;;;;;5021739;28;47224;-83
2024/01/13 07:35:28;;;;;;;;;28.50;27.00;;;;;;;;5034991;28;45578;-84
2024/01/13 07:37:53;;;;;;;;;29.25;25.75;;;;;;;;5030711;28;45307;-84
2024/01/13 07:40:18;;;;;;;;;29.00;20.33;;;;;;;;5046906;28;45297;-83
2024/01/13 07:42:43;;;;;;;;;35.33;28.67;;;;;;;;5031728;28;45160;-83
2024/01/13 07:45:09;;;;;;;;;35.50;28.00;;;;;;;;5028709;28;45629;-84
2024/01/13 07:47:34;;;;;;;;;27.00;24.50;;;;;;;;5039616;28;45435;-84
2024/01/13 07:49:59;;;;;;;;;29.00;25.33;;;;;;;;5027191;28;45491;-84
2024/01/13 07:52:24;;;;;;;;;25.33;22.33;;;;;;;;5026887;28;47412;-84
2024/01/13 07:54:49;;;;;;;;;39.00;28.00;;;;;;;;5035869;28;45368;-84
2024/01/13 07:57:15;;;;;;;;;34.33;26.33;;;;;;;;5026757;28;45247;-85
2024/01/13 07:59:40;;;;;;;;;32.33;25.33;;;;;;;;5055066;28;45250;-84
2024/01/13 08:02:05;;;;;;;;;42.00;30.67;;;;;;;;5013847;28;47211;-85
2024/01/13 08:04:30;;;;;;;;;32.33;26.00;;;;;;;;5030519;28;45362;-84
2024/01/13 08:06:55;;;;;;;;;26.67;21.00;;;;;;;;5044514;28;45625;-85
2024/01/13 08:09:21;;;;;;;;;32.33;26.67;;;;;;;;5058806;28;45402;-85
2024/01/13 08:11:46;;;;;;;;;38.67;28.67;;;;;;;;5027265;28;47893;-85
2024/01/13 08:14:11;;;;;;;;;30.33;24.33;;;;;;;;5030538;28;45917;-85
2024/01/13 08:16:36;;;;;;;;;24.67;20.67;;;;;;;;5023592;28;45261;-85
2024/01/13 08:19:02;;;;;;;;;21.00;19.75;;;;;;;;5030199;28;45197;-85
2024/01/13 08:21:27;;;;;;;;;29.75;24.75;;;;;;;;5039102;28;45384;-85
2024/01/13 08:23:52;;;;;;;;;34.33;24.67;;;;;;;;5036240;28;45412;-85
2024/01/13 08:26:17;;;;;;;;;20.33;19.33;;;;;;;;5037838;28;45175;-85
2024/01/13 08:28:43;;;;;;;;;18.75;16.00;;;;;;;;5020418;28;45234;-85
2024/01/13 08:31:09;;;;;;;;;25.00;18.67;;;;;;;;5037515;28;45357;-84
2024/01/13 08:33:34;;;;;;;;;27.25;21.25;;;;;;;;5037950;28;45912;-83
2024/01/13 08:35:59;;;;;;;;;29.67;21.67;;;;;;;;5041949;28;45354;-82
2024/01/13 08:38:24;;;;;;;;;26.67;23.00;;;;;;;;5041751;28;45375;-83
2024/01/13 08:40:49;;;;;;;;;30.33;23.33;;;;;;;;5041474;28;45746;-83
2024/01/13 08:43:14;;;;;;;;;26.67;25.67;;;;;;;;5042611;28;45490;-83
2024/01/13 08:45:40;;;;;;;;;23.67;14.67;;;;;;;;5030632;28;45311;-83
2024/01/13 08:48:05;;;;;;;;;30.75;23.25;;;;;;;;5051949;28;45309;-81
2024/01/13 08:50:32;;;;;;;;;32.75;29.00;;;;;;;;5049577;28;46553;-83
2024/01/13 08:52:57;;;;;;;;;31.50;27.75;;;;;;;;5049297;28;45301;-82
2024/01/13 08:55:22;;;;;;;;;38.00;30.33;;;;;;;;5058380;28;45250;-83
2024/01/13 08:57:48;;;;;;;;;32.33;24.67;;;;;;;;5044275;28;45299;-83
2024/01/13 09:00:13;;;;;;;;;27.00;25.50;;;;;;;;5050122;28;45343;-82
2024/01/13 09:02:39;;;;;;;;;32.00;25.50;;;;;;;;5029358;28;46759;-83
2024/01/13 09:05:04;;;;;;;;;28.00;26.00;;;;;;;;5045498;28;45431;-83
2024/01/13 09:07:30;;;;;;;;;35.00;25.00;;;;;;;;5040991;28;45358;-82
2024/01/13 09:09:55;;;;;;;;;33.33;26.33;;;;;;;;5022813;28;48379;-82
2024/01/13 09:12:20;;;;;;;;;24.67;21.67;;;;;;;;5057472;28;45266;-83
2024/01/13 09:14:45;;;;;;;;;25.00;21.67;;;;;;;;5033413;28;45347;-82
2024/01/13 09:17:11;;;;;;;;;34.25;28.50;;;;;;;;5035970;28;45659;-83
2024/01/13 09:19:37;;;;;;;;;30.00;24.00;;;;;;;;5050988;28;45302;-82
2024/01/13 09:22:02;;;;;;;;;27.50;20.00;;;;;;;;5024753;28;45260;-82
2024/01/13 09:24:28;;;;;;;;;33.00;27.50;;;;;;;;5029503;28;45403;-82
2024/01/13 09:26:55;;;;;;;;;30.67;25.00;;;;;;;;5051631;28;45308;-82
2024/01/13 09:29:20;;;;;;;;;31.00;27.00;;;;;;;;5042581;28;45297;-83
2024/01/13 09:31:45;;;;;;;;;35.00;25.67;;;;;;;;5042926;28;45462;-82
2024/01/13 09:34:11;;;;;;;;;29.00;23.00;;;;;;;;5025266;28;45353;-83
2024/01/13 09:36:36;;;;;;;;;38.33;36.00;;;;;;;;5024693;28;45463;-83
2024/01/13 09:39:01;;;;;;;;;24.00;24.00;;;;;;;;5041229;28;45966;-83
2024/01/13 09:41:26;;;;;;;;;48.67;32.67;;;;;;;;5025095;28;45691;-83
2024/01/13 09:44:00;;;;;;;;;33.75;25.00;;;;;;;;5045327;28;45652;-82
2024/01/13 09:46:26;;;;;;;;;39.75;31.25;;;;;;;;5041869;28;45661;-83
2024/01/13 09:48:53;;;;;;;;;31.75;26.00;;;;;;;;5021448;28;48212;-83
2024/01/13 09:51:19;;;;;;;;;31.00;25.75;;;;;;;;5043080;28;45925;-82
2024/01/13 09:53:51;;;;;;;;;31.67;23.33;;;;;;;;5042690;28;45304;-82
2024/01/13 09:56:22;;;;;;;;;32.50;26.50;;;;;;;;5016857;28;45926;-82
2024/01/13 09:58:48;;;;;;;;;28.25;23.25;;;;;;;;5026777;28;47593;-82
2024/01/13 10:01:13;;;;;;;;;21.25;19.00;;;;;;;;5040816;28;45386;-82
2024/01/13 10:03:38;;;;;;;;;26.00;22.00;;;;;;;;5045729;28;45310;-82
2024/01/13 10:06:03;;;;;;;;;22.00;21.50;;;;;;;;5045153;28;45303;-82
2024/01/13 10:08:32;;;;;;;;;25.25;18.25;;;;;;;;5026838;28;47002;-82
2024/01/13 10:11:03;;;;;;;;;34.75;27.50;;;;;;;;5043245;28;46265;-83
2024/01/13 10:13:31;;;;;;;;;40.75;30.75;;;;;;;;5042894;28;45430;-83
2024/01/13 10:15:57;;;;;;;;;23.25;22.00;;;;;;;;5028451;28;45499;-85
2024/01/13 10:18:23;;;;;;;;;26.75;22.00;;;;;;;;5034692;28;46571;-83
2024/01/13 10:20:49;;;;;;;;;25.00;16.00;;;;;;;;5039518;28;45949;-83
2024/01/13 10:23:14;;;;;;;;;28.25;22.75;;;;;;;;5039731;28;45412;-83
2024/01/13 10:25:39;;;;;;;;;23.75;21.25;;;;;;;;5023746;28;45418;-84
2024/01/13 10:28:05;;;;;;;;;27.67;22.00;;;;;;;;5021957;28;47187;-83
2024/01/13 10:30:30;;;;;;;;;28.00;25.33;;;;;;;;5044474;28;45448;-84
2024/01/13 10:32:57;;;;;;;;;30.00;25.33;;;;;;;;5022524;28;45369;-83
2024/01/13 10:35:23;;;;;;;;;37.25;25.75;;;;;;;;5040023;28;45452;-82
2024/01/13 10:37:48;;;;;;;;;41.00;35.00;;;;;;;;5021101;28;48079;-82
2024/01/13 10:40:13;;;;;;;;;34.67;29.00;;;;;;;;5028617;28;45306;-82
2024/01/13 10:42:44;;;;;;;;;35.33;18.67;;;;;;;;5031790;28;45250;-82
2024/01/13 10:45:12;;;;;;;;;34.75;30.50;;;;;;;;5035108;28;45437;-82
2024/01/13 10:47:42;;;;;;;;;30.50;25.75;;;;;;;;5032172;28;48055;-81
2024/01/13 10:50:10;;;;;;;;;29.00;26.75;;;;;;;;5025606;28;45859;-81
2024/01/13 10:52:38;;;;;;;;;37.50;32.75;;;;;;;;5047001;28;45287;-81
2024/01/13 10:55:04;;;;;;;;;32.00;27.25;;;;;;;;5035123;28;45550;-83
2024/01/13 10:57:30;;;;;;;;;33.50;26.00;;;;;;;;5021148;28;47294;-83
2024/01/13 10:59:56;;;;;;;;;29.25;23.25;;;;;;;;5034337;28;46113;-83
2024/01/13 11:02:22;;;;;;;;;25.00;23.50;;;;;;;;5038413;28;45447;-83
2024/01/13 11:04:47;;;;;;;;;43.75;35.00;;;;;;;;5035399;28;45495;-83
2024/01/13 11:07:12;;;;;;;;;32.67;27.33;;;;;;;;5017963;28;48193;-82
2024/01/13 11:09:38;;;;;;;;;28.00;25.67;;;;;;;;5049110;28;45465;-82
2024/01/13 11:12:17;;;;;;;;;34.00;21.50;;;;;;;;5017620;28;45481;-82
2024/01/13 11:15:09;;;;;;;;;34.00;26.50;;;;;;;;5023155;28;45469;-81
2024/01/13 11:17:35;;;;;;;;;27.25;22.75;;;;;;;;4977350;28;46955;-82
2024/01/13 11:20:02;;;;;;;;;32.75;25.25;;;;;;;;5019196;28;45673;-82
2024/01/13 11:22:37;;;;;;;;;33.00;26.50;;;;;;;;5040172;28;45299;-81
2024/01/13 11:25:05;;;;;;;;;27.75;24.25;;;;;;;;5032603;28;45568;-82
2024/01/13 11:27:30;;;;;;;;;36.75;30.50;;;;;;;;5035557;28;45722;-82
2024/01/13 11:29:57;;;;;;;;;35.00;30.00;;;;;;;;5033215;28;45749;-82
2024/01/13 11:32:24;;;;;;;;;28.75;25.50;;;;;;;;5034326;28;45540;-82
2024/01/13 11:34:49;;;;;;;;;28.75;26.25;;;;;;;;5035474;28;46092;-82
2024/01/13 11:37:14;;;;;;;;;31.00;28.75;;;;;;;;5045539;28;45499;-81
2024/01/13 11:39:44;;;;;;;;;31.33;23.67;;;;;;;;5035460;28;45522;-82
2024/01/13 11:42:09;;;;;;;;;28.25;23.50;;;;;;;;5035366;28;45708;-82
2024/01/13 11:44:34;;;;;;;;;26.75;23.25;;;;;;;;5042142;28;45619;-83
2024/01/13 11:47:09;;;;;;;;;26.33;23.33;;;;;;;;5041061;28;45994;-82
2024/01/13 11:49:38;;;;;;;;;24.25;23.00;;;;;;;;5034947;28;45395;-82
2024/01/13 11:52:04;;;;;;;;;29.25;23.25;;;;;;;;5043363;28;45479;-82
2024/01/13 11:54:30;;;;;;;;;25.25;22.00;;;;;;;;5032088;28;45690;-83
2024/01/13 11:56:56;;;;;;;;;28.00;21.75;;;;;;;;5035633;28;45390;-83
2024/01/13 11:59:21;;;;;;;;;32.50;30.00;;;;;;;;5031323;28;46174;-82
2024/01/13 12:01:47;;;;;;;;;21.67;17.00;;;;;;;;5033876;28;45571;-82
2024/01/13 12:04:12;;;;;;;;;31.00;27.00;;;;;;;;5024087;28;45462;-82
2024/01/13 12:06:38;;;;;;;;;32.50;27.00;;;;;;;;5033659;28;45451;-83
2024/01/13 12:09:04;;;;;;;;;27.25;21.50;;;;;;;;5046264;28;45472;-83
2024/01/13 12:11:29;;;;;;;;;24.67;21.67;;;;;;;;5019087;28;45400;-82
2024/01/13 12:13:54;;;;;;;;;19.67;18.33;;;;;;;;5020199;28;45434;-82
2024/01/13 12:16:20;;;;;;;;;21.25;20.75;;;;;;;;5042379;28;45585;-82
2024/01/13 12:18:46;;;;;;;;;35.75;26.00;;;;;;;;5056333;28;45382;-82
2024/01/13 12:21:12;;;;;;;;;32.75;29.00;;;;;;;;5018402;28;45718;-83
2024/01/13 12:23:37;;;;;;;;;36.25;31.50;;;;;;;;5037676;28;45493;-82
2024/01/13 12:26:03;;;;;;;;;27.00;24.67;;;;;;;;5026547;28;46340;-83
2024/01/13 12:28:28;;;;;;;;;22.00;20.50;;;;;;;;5026462;28;45543;-83
2024/01/13 12:30:53;;;;;;;;;27.67;22.67;;;;;;;;5036710;28;45339;-83
2024/01/13 12:33:19;;;;;;;;;15.00;12.00;;;;;;;;5024707;28;45516;-83
2024/01/13 12:35:45;;;;;;;;;26.00;22.75;;;;;;;;5018088;28;48055;-82
2024/01/13 12:38:10;;;;;;;;;34.50;28.00;;;;;;;;5039774;28;45680;-82
2024/01/13 12:40:36;;;;;;;;;26.67;24.67;;;;;;;;5041016;28;45397;-82
2024/01/13 12:43:01;;;;;;;;;27.75;26.00;;;;;;;;5020542;28;45594;-82
2024/01/13 12:45:27;;;;;;;;;46.25;35.50;;;;;;;;5049094;28;46331;-82
2024/01/13 12:47:56;;;;;;;;;32.50;25.25;;;;;;;;5050846;28;45382;-82
2024/01/13 12:50:22;;;;;;;;;23.25;19.00;;;;;;;;5038197;28;45606;-82
2024/01/13 12:52:47;;;;;;;;;15.50;15.00;;;;;;;;5040929;28;45793;-83
2024/01/13 12:55:12;;;;;;;;;23.75;18.50;;;;;;;;5042314;28;45502;-83
2024/01/13 12:57:38;;;;;;;;;35.67;31.00;;;;;;;;5022051;28;45384;-82
2024/01/13 13:00:06;;;;;;;;;31.75;27.50;;;;;;;;5037386;28;45359;-82
2024/01/13 13:02:35;;;;;;;;;21.75;19.00;;;;;;;;5020704;28;45986;-82
2024/01/13 13:05:01;;;;;;;;;25.00;22.25;;;;;;;;5037725;28;46375;-82
2024/01/13 13:07:28;;;;;;;;;19.75;18.25;;;;;;;;5020263;28;46144;-82
2024/01/13 13:09:55;;;;;;;;;26.50;23.25;;;;;;;;5020212;28;45379;-82
2024/01/13 13:12:21;;;;;;;;;25.75;23.00;;;;;;;;5035974;28;45402;-82
2024/01/13 13:14:47;;;;;;;;;27.00;21.00;;;;;;;;5037259;28;45503;-82
2024/01/13 13:17:12;;;;;;;;;25.50;19.00;;;;;;;;5037430;28;45414;-82
2024/01/13 13:19:37;;;;;;;;;25.67;22.00;;;;;;;;5019082;28;45657;-82
2024/01/13 13:22:03;;;;;;;;;38.00;27.00;;;;;;;;5044090;28;45454;-82
2024/01/13 13:24:29;;;;;;;;;29.00;26.75;;;;;;;;5022282;28;47995;-82
2024/01/13 13:26:54;;;;;;;;;32.75;29.00;;;;;;;;5019739;28;45475;-83
2024/01/13 13:29:19;;;;;;;;;27.67;22.67;;;;;;;;5043166;28;45266;-83
2024/01/13 13:31:45;;;;;;;;;28.33;19.67;;;;;;;;5025295;28;45468;-83
2024/01/13 13:34:11;;;;;;;;;28.00;25.00;;;;;;;;5025753;28;47855;-83
2024/01/13 13:36:36;;;;;;;;;30.75;23.25;;;;;;;;5048562;28;45391;-82
2024/01/13 13:39:01;;;;;;;;;25.25;23.25;;;;;;;;5044655;28;45330;-83
2024/01/13 13:41:27;;;;;;;;;29.67;23.67;;;;;;;;5043566;28;45397;-83
2024/01/13 13:43:52;;;;;;;;;26.75;22.75;;;;;;;;5028496;28;47822;-83
2024/01/13 13:46:17;;;;;;;;;23.00;23.00;;;;;;;;5042903;28;45303;-83
2024/01/13 13:48:42;;;;;;;;;27.33;24.67;;;;;;;;5037274;28;45367;-83
2024/01/13 13:51:08;;;;;;;;;25.00;21.67;;;;;;;;5025678;28;45436;-83
2024/01/13 13:53:33;;;;;;;;;27.00;23.50;;;;;;;;5037976;28;45688;-83
2024/01/13 13:55:59;;;;;;;;;23.67;19.33;;;;;;;;5016095;28;45705;-83
2024/01/13 13:58:24;;;;;;;;;30.00;22.00;;;;;;;;5028830;28;45369;-83
2024/01/13 14:00:49;;;;;;;;;29.33;26.00;;;;;;;;5023921;28;45801;-83
2024/01/13 14:03:15;;;;;;;;;27.33;23.67;;;;;;;;5046648;28;45248;-83
2024/01/13 14:05:41;;;;;;;;;25.00;23.67;;;;;;;;5043613;28;45418;-83
2024/01/13 14:08:06;;;;;;;;;33.50;25.00;;;;;;;;5043677;28;45623;-83